Terminal Aerodrome Forecast
Issued by NWS Sioux Falls, SD

Home | Current Version | Previous Version | Graphics & Text | Print | Product List | Glossary On
Versions: 1 2 3 4 5 6 7 8 9 10 11 12 13 14 15 16 17 18 19 20 21 22 23 24
052
FTUS43 KFSD 241141
TAFFSD
TAF
KFSD 241141Z 2412/2512 12007KT 1 1/2SM BR OVC003
      TEMPO 2412/2414 3/4SM BR
     FM241500 09007KT 4SM -SN BR OVC003
     FM241700 09007KT 1 1/2SM -SN OVC007
      TEMPO 2418/2421 3/4SM -SN
     FM242200 17006KT 2SM -SN OVC010
     FM250000 26006KT 5SM -SN OVC010
     FM250300 27010KT P6SM OVC015
     FM250700 27010KT P6SM SCT090=

USA.gov is the U.S. government's official web portal to all federal, state and local government web resources and services.